createdAt,value
2019-02-04T00:01:29.296Z,10.80
2019-02-04T00:03:56.722Z,11.38
2019-02-04T00:06:24.129Z,9.13
2019-02-04T00:08:51.541Z,9.60
2019-02-04T00:11:18.929Z,9.18
2019-02-04T00:13:46.426Z,9.83
2019-02-04T00:16:13.924Z,10.25
2019-02-04T00:18:41.660Z,10.18
2019-02-04T00:21:09.177Z,6.55
2019-02-04T00:23:36.565Z,9.13
2019-02-04T00:26:04.355Z,10.25
2019-02-04T00:28:31.773Z,12.88
2019-02-04T00:30:59.155Z,7.60
2019-02-04T00:33:26.562Z,8.48
2019-02-04T00:35:54.253Z,9.20
2019-02-04T00:38:21.656Z,12.98
2019-02-04T00:40:49.071Z,11.53
2019-02-04T00:43:16.470Z,9.83
2019-02-04T00:45:43.878Z,9.23
2019-02-04T00:48:11.277Z,10.90
2019-02-04T00:50:38.716Z,12.40
2019-02-04T00:53:06.521Z,15.10
2019-02-04T00:55:33.909Z,8.78
2019-02-04T00:58:01.296Z,10.95
2019-02-04T01:00:29.483Z,7.90
2019-02-04T01:02:56.939Z,9.58
2019-02-04T01:05:24.449Z,9.00
2019-02-04T01:07:51.837Z,10.43
2019-02-04T01:10:20.507Z,18.45
2019-02-04T01:12:48.195Z,12.35
2019-02-04T01:15:15.583Z,8.93
2019-02-04T01:17:42.987Z,8.20
2019-02-04T01:20:12.155Z,11.90
2019-02-04T01:22:39.949Z,13.53
2019-02-04T01:25:08.607Z,10.82
2019-02-04T01:27:35.994Z,11.83
2019-02-04T01:30:04.867Z,8.20
2019-02-04T01:32:32.356Z,10.43
2019-02-04T01:34:59.744Z,9.30
2019-02-04T01:37:27.134Z,9.43
2019-02-04T01:39:54.539Z,13.62
2019-02-04T01:42:22.171Z,11.38
2019-02-04T01:44:49.576Z,11.08
2019-02-04T01:47:16.984Z,13.35
2019-02-04T01:49:44.475Z,12.30
2019-02-04T01:52:11.872Z,11.40
2019-02-04T01:54:39.277Z,13.58
2019-02-04T01:57:06.683Z,13.62
2019-02-04T01:59:34.072Z,8.93
2019-02-04T02:02:01.499Z,13.13
2019-02-04T02:04:28.887Z,11.00
2019-02-04T02:06:56.449Z,11.95
2019-02-04T02:09:24.295Z,15.98
2019-02-04T02:11:51.717Z,10.88
2019-02-04T02:14:19.471Z,15.20
2019-02-04T02:16:47.033Z,18.23
2019-02-04T02:19:14.414Z,15.45
2019-02-04T02:21:41.868Z,13.85
2019-02-04T02:24:09.356Z,12.70
2019-02-04T02:26:36.791Z,11.88
2019-02-04T02:29:04.271Z,16.00
2019-02-04T02:31:31.863Z,13.53
2019-02-04T02:33:59.280Z,11.00
2019-02-04T02:36:26.672Z,13.38
2019-02-04T02:38:54.092Z,18.62
2019-02-04T02:41:21.510Z,15.83
2019-02-04T02:43:48.928Z,14.45
2019-02-04T02:46:16.326Z,14.28
2019-02-04T02:48:44.125Z,14.70
2019-02-04T02:51:11.546Z,14.65
2019-02-04T02:53:38.945Z,12.95
2019-02-04T02:56:06.341Z,12.05
2019-02-04T02:58:33.780Z,15.88
2019-02-04T03:01:01.183Z,13.18
2019-02-04T03:03:28.580Z,19.20
2019-02-04T03:05:56.383Z,12.63
2019-02-04T03:08:23.776Z,15.35
2019-02-04T03:10:51.454Z,12.07
2019-02-04T03:13:18.957Z,14.13
2019-02-04T03:15:46.367Z,15.30
2019-02-04T03:18:13.740Z,17.00
2019-02-04T03:20:41.159Z,16.70
2019-02-04T03:23:08.649Z,18.75
2019-02-04T03:25:36.129Z,19.57
2019-02-04T03:28:03.528Z,18.57
2019-02-04T03:30:32.225Z,15.05
2019-02-04T03:32:59.645Z,16.37
2019-02-04T03:35:27.048Z,17.00
2019-02-04T03:37:54.741Z,15.30
2019-02-04T03:40:23.769Z,15.48
2019-02-04T03:42:51.586Z,15.23
2019-02-04T03:45:19.330Z,16.45
2019-02-04T03:48:04.162Z,17.23
2019-02-04T03:50:23.802Z,19.37
2019-02-04T03:52:54.448Z,15.83
2019-02-04T03:55:26.890Z,12.68
2019-02-04T03:57:54.413Z,12.73
2019-02-04T04:00:28.767Z,18.90
2019-02-04T04:02:56.157Z,17.15
2019-02-04T04:05:23.973Z,15.72
2019-02-04T04:07:53.436Z,15.10
2019-02-04T04:10:20.669Z,18.73
2019-02-04T04:12:48.172Z,14.38
2019-02-04T04:15:21.858Z,12.15
2019-02-04T04:17:49.251Z,16.00
2019-02-04T04:20:17.642Z,16.45
2019-02-04T04:22:45.219Z,21.00
2019-02-04T04:25:18.649Z,16.95
2019-02-04T04:27:46.314Z,17.40
2019-02-04T04:30:15.304Z,16.52
2019-02-04T04:32:42.722Z,19.07
2019-02-04T04:35:10.627Z,18.82
2019-02-04T04:37:38.024Z,20.85
2019-02-04T04:40:06.783Z,23.15
2019-02-04T04:42:34.204Z,21.70
2019-02-04T04:45:01.599Z,26.52
2019-02-04T04:47:29.015Z,22.20
2019-02-04T04:49:56.416Z,20.25
2019-02-04T04:52:24.033Z,22.73
2019-02-04T04:54:51.428Z,22.10
2019-02-04T04:57:18.834Z,28.60
2019-02-04T04:59:46.263Z,23.98
2019-02-04T05:02:13.669Z,26.80
2019-02-04T05:04:41.067Z,29.90
2019-02-04T05:07:08.508Z,28.87
2019-02-04T05:09:36.003Z,25.10
2019-02-04T05:12:03.391Z,27.75
2019-02-04T05:14:30.813Z,26.25
2019-02-04T05:16:58.252Z,27.45
2019-02-04T05:19:25.666Z,31.45
2019-02-04T05:21:53.061Z,34.98
2019-02-04T05:24:20.498Z,33.73
2019-02-04T05:26:47.916Z,33.02
2019-02-04T05:29:15.308Z,35.75
2019-02-04T05:31:42.729Z,36.75
2019-02-04T05:34:10.129Z,34.13
2019-02-04T05:36:37.528Z,30.62
2019-02-04T05:39:06.491Z,41.58
2019-02-04T05:41:36.125Z,37.53
2019-02-04T05:44:03.848Z,39.35
2019-02-04T05:46:31.231Z,37.80
2019-02-04T05:48:58.635Z,37.90
2019-02-04T05:51:26.053Z,39.42
2019-02-04T05:53:53.452Z,43.48
2019-02-04T05:56:20.873Z,44.13
2019-02-04T05:58:48.576Z,44.27
2019-02-04T06:01:16.032Z,43.68
2019-02-04T06:03:43.426Z,42.00
2019-02-04T06:06:10.819Z,40.83
2019-02-04T06:08:38.259Z,42.30
2019-02-04T06:11:05.708Z,47.85
2019-02-04T06:13:33.111Z,44.03
2019-02-04T06:16:00.983Z,50.50
2019-02-04T06:18:28.400Z,51.88
2019-02-04T06:20:55.863Z,55.03
2019-02-04T06:23:23.294Z,50.50
2019-02-04T06:25:50.697Z,64.58
2019-02-04T06:28:21.004Z,56.00
2019-02-04T06:30:48.693Z,63.28
2019-02-04T06:33:16.098Z,52.83
2019-02-04T06:35:43.516Z,75.67
2019-02-04T06:38:11.009Z,54.23
2019-02-04T06:40:38.416Z,52.98
2019-02-04T06:43:05.807Z,53.73
2019-02-04T06:45:33.272Z,57.98
2019-02-04T06:48:00.726Z,50.88
2019-02-04T06:50:28.118Z,62.58
2019-02-04T06:52:55.624Z,53.00
2019-02-04T06:55:27.227Z,49.18
2019-02-04T06:57:54.652Z,56.80
2019-02-04T07:00:22.216Z,49.75
2019-02-04T07:02:49.687Z,51.45
2019-02-04T07:05:17.764Z,51.63
2019-02-04T07:07:48.082Z,50.78
2019-02-04T07:10:16.746Z,51.83
2019-02-04T07:12:44.228Z,50.98
2019-02-04T07:15:11.718Z,51.58
2019-02-04T07:17:39.161Z,50.50
2019-02-04T07:20:08.083Z,48.13
2019-02-04T07:22:35.532Z,48.15
2019-02-04T07:25:04.188Z,46.25
2019-02-04T07:27:31.588Z,48.52
2019-02-04T07:29:59.052Z,46.23
2019-02-04T07:32:26.943Z,42.58
2019-02-04T07:34:55.556Z,45.60
2019-02-04T07:37:22.951Z,46.92
2019-02-04T07:39:50.356Z,45.12
2019-02-04T07:42:17.764Z,41.48
2019-02-04T07:44:46.879Z,51.55
2019-02-04T07:47:14.349Z,41.70
2019-02-04T07:49:41.784Z,40.50
2019-02-04T07:52:09.240Z,42.48
2019-02-04T07:54:39.226Z,38.17
2019-02-04T07:57:06.971Z,35.30
2019-02-04T07:59:34.370Z,38.53
2019-02-04T08:02:01.763Z,40.43
2019-02-04T08:04:29.203Z,32.42
2019-02-04T08:06:56.614Z,40.70
2019-02-04T08:09:24.016Z,31.97
2019-02-04T08:11:51.739Z,37.15
2019-02-04T08:14:19.139Z,32.67
2019-02-04T08:16:46.548Z,29.20
2019-02-04T08:19:13.966Z,28.32
2019-02-04T08:21:41.407Z,28.20
2019-02-04T08:24:08.804Z,27.90
2019-02-04T08:26:36.224Z,24.20
2019-02-04T08:29:04.017Z,28.83
2019-02-04T08:31:31.404Z,30.80
2019-02-04T08:33:58.851Z,28.75
2019-02-04T08:36:26.228Z,24.02
2019-02-04T08:38:53.636Z,25.15
2019-02-04T08:41:21.043Z,21.40
2019-02-04T08:43:48.448Z,18.12
2019-02-04T08:46:15.880Z,20.43
2019-02-04T08:48:43.275Z,18.70
2019-02-04T08:51:10.684Z,17.95
2019-02-04T08:53:41.372Z,19.02
2019-02-04T08:56:08.956Z,17.92
2019-02-04T08:58:39.238Z,18.77
2019-02-04T12:02:01.061Z,14.07
2019-02-04T12:04:48.153Z,11.43
2019-02-04T12:07:15.831Z,12.15
2019-02-04T12:09:43.256Z,13.25
2019-02-04T12:12:12.958Z,11.03
2019-02-04T12:14:40.369Z,13.15
2019-02-04T12:17:07.797Z,12.73
2019-02-04T12:19:37.166Z,11.70
2019-02-04T12:22:06.914Z,12.50
2019-02-04T12:24:35.451Z,16.07
2019-02-04T12:27:05.961Z,12.65
2019-02-04T12:29:33.587Z,12.15
2019-02-04T12:32:00.961Z,12.05
2019-02-04T12:34:28.403Z,11.18
2019-02-04T12:36:55.863Z,14.58
2019-02-04T12:39:23.547Z,13.20
2019-02-04T12:41:50.983Z,13.70
2019-02-04T12:44:18.397Z,15.08
2019-02-04T12:46:45.812Z,15.30
2019-02-04T12:49:13.310Z,15.23
2019-02-04T12:51:40.743Z,18.00
2019-02-04T12:54:08.312Z,13.83
2019-02-04T12:56:36.217Z,14.45
2019-02-04T12:59:03.614Z,13.40
2019-02-04T13:01:30.998Z,13.32
2019-02-04T13:03:58.420Z,15.90
2019-02-04T13:06:25.828Z,14.73
2019-02-04T13:08:53.244Z,16.02
2019-02-04T13:11:20.648Z,13.68
2019-02-04T13:13:48.304Z,12.65
2019-02-04T13:16:15.731Z,13.93
2019-02-04T13:18:43.667Z,12.15
2019-02-04T13:21:11.237Z,14.78
2019-02-04T13:23:38.668Z,14.15
2019-02-04T13:26:06.079Z,13.05
2019-02-04T13:28:33.484Z,13.28
2019-02-04T13:31:01.203Z,12.75
2019-02-04T13:33:34.030Z,13.43
2019-02-04T13:36:01.451Z,12.58
2019-02-04T13:38:28.855Z,15.60
2019-02-04T13:41:07.271Z,13.13
2019-02-04T13:43:27.124Z,14.03
2019-02-04T13:45:58.882Z,13.08
2019-02-04T13:48:30.937Z,13.65
2019-02-04T13:50:58.473Z,13.30
2019-02-04T13:53:27.069Z,15.05
2019-02-04T13:55:55.202Z,15.75
2019-02-04T13:58:25.663Z,14.33
2019-02-04T14:00:53.896Z,12.65
2019-02-04T14:03:22.067Z,15.32
2019-02-04T14:05:49.518Z,14.23
2019-02-04T14:08:17.976Z,15.93
2019-02-04T14:10:46.541Z,13.62
2019-02-04T14:13:16.114Z,13.20
2019-02-04T14:15:45.057Z,12.40
2019-02-04T14:18:14.704Z,12.73
2019-02-04T14:20:43.257Z,16.73
2019-02-04T14:23:12.601Z,12.50
2019-02-04T14:25:40.841Z,13.98
2019-02-04T14:28:09.394Z,12.25
2019-02-04T14:30:38.971Z,18.85
2019-02-04T14:33:08.241Z,12.28
2019-02-04T14:35:36.929Z,12.88
2019-02-04T14:38:05.349Z,13.22
2019-02-04T14:40:34.762Z,11.70
2019-02-04T14:43:10.032Z,15.08
2019-02-04T14:45:46.440Z,14.83
2019-02-04T14:48:22.480Z,13.98
2019-02-04T14:50:52.903Z,14.40
2019-02-04T14:53:31.728Z,14.43
2019-02-04T14:56:01.883Z,11.35
2019-02-04T14:58:31.813Z,10.38
2019-02-04T15:01:02.105Z,10.90
2019-02-04T15:03:34.297Z,10.03
2019-02-04T15:06:22.207Z,10.18
2019-02-04T15:08:57.075Z,10.98
2019-02-04T15:11:29.998Z,10.90
2019-02-04T15:14:03.150Z,9.18
2019-02-04T15:16:41.933Z,10.30
2019-02-04T15:19:14.881Z,11.18
2019-02-04T15:21:47.919Z,11.18
2019-02-04T15:24:18.457Z,13.03
2019-02-04T15:27:03.349Z,11.30
2019-02-04T15:29:33.429Z,14.58
2019-02-04T15:32:12.855Z,25.32
2019-02-04T15:35:03.875Z,10.72
2019-02-04T15:37:25.951Z,10.32
2019-02-04T15:39:58.380Z,11.80
2019-02-04T15:42:37.887Z,12.43
2019-02-04T15:45:12.054Z,14.23
2019-02-04T15:47:44.739Z,11.78
2019-02-04T15:50:18.098Z,13.22
2019-02-04T15:52:47.260Z,12.98
2019-02-04T15:55:16.250Z,10.98
2019-02-04T15:57:44.680Z,10.70
2019-02-04T16:00:13.324Z,10.85
2019-02-04T16:02:43.691Z,12.33
2019-02-04T16:05:12.121Z,11.10
2019-02-04T16:07:39.941Z,11.80
2019-02-04T16:10:13.479Z,11.33
2019-02-04T16:12:42.792Z,10.70
2019-02-04T16:15:12.166Z,11.30
2019-02-04T16:17:43.626Z,11.45
2019-02-04T16:20:16.728Z,12.55
2019-02-04T16:22:57.185Z,11.38
2019-02-04T16:25:15.385Z,12.37
2019-02-04T16:27:43.301Z,10.80
2019-02-04T16:30:14.909Z,13.62
2019-02-04T16:32:43.306Z,13.05
2019-02-04T16:35:13.149Z,11.15
2019-02-04T16:37:42.902Z,14.30
2019-02-04T16:40:12.842Z,13.83
2019-02-04T16:42:41.954Z,15.48
2019-02-04T16:45:12.112Z,9.23
2019-02-04T16:47:40.720Z,11.35
2019-02-04T16:50:17.716Z,12.60
2019-02-04T16:52:48.081Z,12.65
2019-02-04T16:55:16.239Z,12.73
2019-02-04T16:57:44.774Z,11.18
2019-02-04T17:00:14.799Z,9.43
2019-02-04T17:02:43.548Z,12.40
2019-02-04T17:05:14.805Z,11.85
2019-02-04T17:07:43.495Z,13.03
2019-02-04T17:10:15.742Z,12.10
2019-02-04T17:12:43.707Z,11.83
2019-02-04T17:15:12.448Z,11.05
2019-02-04T17:17:41.209Z,11.25
2019-02-04T17:20:13.878Z,10.98
2019-02-04T17:22:42.512Z,11.68
2019-02-04T17:25:11.865Z,10.40
2019-02-04T17:27:40.314Z,9.83
2019-02-04T17:30:10.703Z,15.00
2019-02-04T17:32:41.208Z,9.63
2019-02-04T17:35:09.522Z,10.82
2019-02-04T17:37:37.260Z,10.72
2019-02-04T17:40:06.317Z,11.95
2019-02-04T17:42:34.901Z,9.50
2019-02-04T17:45:02.933Z,8.40
2019-02-04T17:47:30.806Z,9.95
2019-02-04T17:49:59.861Z,11.53
2019-02-04T17:52:28.291Z,11.20
2019-02-04T17:54:57.271Z,11.25
2019-02-04T17:57:26.731Z,12.45
2019-02-04T17:59:55.078Z,9.50
2019-02-04T18:02:24.039Z,10.32
2019-02-04T18:04:51.584Z,9.10
2019-02-04T18:07:20.674Z,8.98
2019-02-04T18:09:48.562Z,11.40
2019-02-04T18:12:17.020Z,8.85
2019-02-04T18:14:47.375Z,12.03
2019-02-04T18:17:15.241Z,12.28
2019-02-04T18:19:44.024Z,11.80
2019-02-04T18:22:12.463Z,11.25
2019-02-04T18:24:42.065Z,11.80
2019-02-04T18:27:10.846Z,8.98
2019-02-04T18:29:38.448Z,11.73
2019-02-04T18:32:07.091Z,11.12
2019-02-04T18:34:36.094Z,12.58
2019-02-04T18:37:05.711Z,9.78
2019-02-04T18:39:34.589Z,19.82
2019-02-04T18:42:02.985Z,11.88
2019-02-04T18:44:31.878Z,12.78
2019-02-04T18:47:01.299Z,9.60
2019-02-04T18:49:30.641Z,12.05
2019-02-04T18:51:58.835Z,11.97
2019-02-04T18:54:28.065Z,16.10
2019-02-04T18:56:56.368Z,12.93
2019-02-04T18:59:25.078Z,12.45
2019-02-04T19:01:54.970Z,12.25
2019-02-04T19:04:23.277Z,10.55
2019-02-04T19:06:52.101Z,12.68
2019-02-04T19:09:21.779Z,12.88
2019-02-04T19:11:48.679Z,13.38
2019-02-04T19:14:16.134Z,12.00
2019-02-04T19:16:43.499Z,13.93
2019-02-04T19:19:10.902Z,13.40
2019-02-04T19:21:38.411Z,13.22
2019-02-04T19:24:09.682Z,11.83
2019-02-04T19:26:34.951Z,16.42
2019-02-04T19:29:02.369Z,10.85
2019-02-04T19:31:29.834Z,16.77
2019-02-04T19:33:57.232Z,11.50
2019-02-04T19:36:24.849Z,11.93
2019-02-04T19:38:52.321Z,12.03
2019-02-04T19:41:19.740Z,12.13
2019-02-04T19:43:47.159Z,11.18
2019-02-04T19:46:14.559Z,12.30
2019-02-04T19:48:41.994Z,12.63
2019-02-04T19:51:09.451Z,13.15
2019-02-04T19:53:37.154Z,14.25
2019-02-04T19:56:04.651Z,15.60
2019-02-04T19:58:32.030Z,13.20
2019-02-04T20:00:59.440Z,14.10
2019-02-04T20:03:26.852Z,11.88
2019-02-04T20:05:54.249Z,12.60
2019-02-04T20:08:21.914Z,16.20
2019-02-04T20:10:49.903Z,10.90
2019-02-04T20:13:17.287Z,12.82
2019-02-04T20:15:45.566Z,12.03
2019-02-04T20:18:13.205Z,11.65
2019-02-04T20:20:42.607Z,11.55
2019-02-04T20:23:09.873Z,9.93
2019-02-04T20:25:37.252Z,12.05
2019-02-04T20:28:06.449Z,11.85
2019-02-04T20:30:45.434Z,12.58
2019-02-04T20:33:04.738Z,12.10
2019-02-04T20:35:32.112Z,11.90
2019-02-04T20:37:59.495Z,11.10
2019-02-04T20:40:27.466Z,12.30
2019-02-04T20:42:54.846Z,12.95
2019-02-04T20:45:22.751Z,14.65
2019-02-04T20:47:50.798Z,11.45
2019-02-04T20:50:19.766Z,11.15
2019-02-04T20:52:47.166Z,9.68
2019-02-04T20:55:14.598Z,14.68
2019-02-04T20:57:42.212Z,11.73
2019-02-04T21:00:17.106Z,11.53
2019-02-04T21:02:44.495Z,12.43
2019-02-04T21:05:11.975Z,9.85
2019-02-04T21:07:39.476Z,12.25
2019-02-04T21:10:08.511Z,10.15
2019-02-04T21:12:37.843Z,10.80
2019-02-04T21:15:07.925Z,10.50
2019-02-04T21:17:37.313Z,9.40
2019-02-04T21:20:08.314Z,10.40
2019-02-04T21:22:37.435Z,11.10
2019-02-04T21:25:06.204Z,10.40
2019-02-04T21:27:33.663Z,9.95
2019-02-04T21:30:01.127Z,10.03
2019-02-04T21:32:28.881Z,10.10
2019-02-04T21:34:56.295Z,11.85
2019-02-04T21:37:23.683Z,10.88
2019-02-04T21:39:51.103Z,9.98
2019-02-04T21:42:18.492Z,9.75
2019-02-04T21:44:45.871Z,9.78
2019-02-04T21:47:13.271Z,9.73
2019-02-04T21:49:40.875Z,8.45
2019-02-04T21:52:08.255Z,10.35
2019-02-04T21:54:35.638Z,10.58
2019-02-04T21:57:03.050Z,8.35
2019-02-04T21:59:30.477Z,9.65
2019-02-04T22:01:57.835Z,10.95
2019-02-04T22:04:25.236Z,9.90
2019-02-04T22:06:53.062Z,9.08
2019-02-04T22:09:20.672Z,11.63
2019-02-04T22:11:48.050Z,10.08
2019-02-04T22:14:15.655Z,7.55
2019-02-04T22:16:43.111Z,9.33
2019-02-04T22:19:10.915Z,9.50
2019-02-04T22:21:38.299Z,10.95
2019-02-04T22:24:05.903Z,10.10
2019-02-04T22:26:34.661Z,10.43
2019-02-04T22:29:02.284Z,9.98
2019-02-04T22:31:29.752Z,9.35
2019-02-04T22:33:57.455Z,11.68
2019-02-04T22:36:25.194Z,12.20
2019-02-04T22:38:52.595Z,10.68
2019-02-04T22:41:19.974Z,10.45
2019-02-04T22:43:47.579Z,11.12
2019-02-04T22:46:15.007Z,11.10
2019-02-04T22:48:42.387Z,9.13
2019-02-04T22:51:09.800Z,10.82
2019-02-04T22:53:37.190Z,9.75
2019-02-04T22:56:05.354Z,12.05
2019-02-04T22:58:32.756Z,11.48
2019-02-04T23:01:01.954Z,11.15
2019-02-04T23:03:29.384Z,13.13
2019-02-04T23:05:56.786Z,10.48
2019-02-04T23:08:24.282Z,9.18
2019-02-04T23:10:51.738Z,8.58
2019-02-04T23:13:19.198Z,9.23
2019-02-04T23:15:46.599Z,9.93
2019-02-04T23:18:14.170Z,11.03
2019-02-04T23:20:41.572Z,13.70
2019-02-04T23:23:08.966Z,10.58
2019-02-04T23:25:43.564Z,8.58
2019-02-04T23:28:05.644Z,11.40
2019-02-04T23:30:33.019Z,10.88
2019-02-04T23:33:00.741Z,9.75
2019-02-04T23:35:28.125Z,9.70
2019-02-04T23:37:55.506Z,11.97
2019-02-04T23:40:22.907Z,8.08
2019-02-04T23:42:50.357Z,8.40
2019-02-04T23:45:17.770Z,8.60
2019-02-04T23:47:45.229Z,9.43
2019-02-04T23:50:13.782Z,10.10
2019-02-04T23:52:41.222Z,8.53
2019-02-04T23:55:09.780Z,10.68
2019-02-04T23:57:37.230Z,10.90
